Nearby METAR Reports

 

KTAN - Taunton, Massachusetts, USA
Distance from station: W 5mi, 8km
Updated: Mon, 13-Jul-2020 9:52pm EDT
Clear
Clear
 Wind from calm
Wind: Calm
Temperature: 72°F , 22°C
Dew Point: 68°F , 20°C
Humidity: 88%
Barometer: 29.80 inHg , 1009.1 hPa
Clouds: Clear
Visibility: 10 miles , 16 km
2020/07/14 01:52 KTAN 140152Z AUTO 00000KT 10SM CLR 22/20 A2980 RMK AO2 SLP091 T02220200
KPYM - Plymouth, Massachusetts, USA
Distance from station: ENE 10mi, 16km
Updated: Mon, 13-Jul-2020 9:52pm EDT
Clear
Clear
 Wind from calm
Wind: Calm
Temperature: 72°F , 22°C
Dew Point: 70°F , 21°C
Humidity: 94%
Barometer: 29.81 inHg , 1009.5 hPa
Clouds: Clear
Visibility: 10 miles , 16 km
2020/07/14 01:52 KPYM 140152Z AUTO 00000KT 10SM CLR 22/21 A2981 RMK AO2 SLP094 T02170206
 
KEWB - New Bedford, Massachusetts, USA
Distance from station: S 14mi, 23km
Updated: Mon, 13-Jul-2020 9:53pm EDT
Clear
Clear
 Wind from SW
Wind: SW 3 mph , 6 km/h
Temperature: 68°F , 20°C
Dew Point: 68°F , 20°C
Humidity: 100%
Barometer: 29.81 inHg , 1009.5 hPa
Clouds: Clear
Visibility: 10 miles , 16 km
2020/07/14 01:53 KEWB 140153Z 23003KT 10SM CLR 20/20 A2981 RMK AO2 SLP093 T02000200
KGHG - Marshfield, Massachusetts, USA
Distance from station: NE 20mi, 31km
Updated: Mon, 13-Jul-2020 9:55pm EDT
Clear
Clear
 Wind from varies
Wind: varies 3 mph , 6 km/h
Temperature: 73°F , 23°C
Dew Point: 72°F , 22°C
Humidity: 94%
Barometer: 29.80 inHg , 1009.1 hPa
Clouds: Clear
Visibility: 10 miles , 16 km
2020/07/14 01:55 KGHG 140155Z AUTO VRB03KT 10SM CLR 23/22 A2980 RMK AO2
 
KOWD - Norwood, Massachusetts, USA
Distance from station: NNW 24mi, 39km
Updated: Mon, 13-Jul-2020 9:53pm EDT
Clear
Clear
 Wind from N
Wind: N 5 mph , 7 km/h
Temperature: 70°F , 21°C
Dew Point: 66°F , 19°C
Humidity: 88%
Barometer: 29.82 inHg , 1009.8 hPa
Clouds: Clear
Visibility: 8 miles , 13 km
2020/07/14 01:53 KOWD 140153Z 35004KT 8SM CLR 21/19 A2982 RMK AO2 RAE0058 SLP096 P0000 T02110189
KMQE - East Milton, Massachusetts, USA
Distance from station: NNW 25mi, 40km
Updated: Mon, 13-Jul-2020 9:51pm EDT

 Wind from NNW
Wind: NNW 7 mph , 11 km/h
Temperature: 70°F , 21°C
Dew Point: 66°F , 19°C
Humidity: 88%
Barometer: 29.83 inHg , 1010.2 hPa
2020/07/14 01:51 KMQE 140151Z AUTO 34006KT 21/19 A2983 RMK AO1 SLP108 T02060194
 
KFMH - Falmouth/Otis Ab, Massachusetts, USA
Distance from station: SE 27mi, 44km
Updated: Mon, 13-Jul-2020 9:45pm EDT
Clear
Clear
 Wind from SW
Wind: SW 7 mph , 11 km/h
Temperature: 70°F , 21°C
Dew Point: 68°F , 20°C
Humidity: 94%
Barometer: 29.82 inHg , 1009.8 hPa
Clouds: Clear
Visibility: 10 miles , 16 km
2020/07/14 01:45 KFMH 140145Z 22006KT 10SM CLR 21/20 A2982
KPVD - Providence/Green, Rhode Island, USA
Distance from station: WSW 29mi, 47km
Updated: Mon, 13-Jul-2020 9:51pm EDT
Partly cloudy
Partly cloudy
 Wind from W
Wind: W 3 mph , 6 km/h
Temperature: 77°F , 25°C
Dew Point: 64°F , 18°C
Humidity: 65%
Barometer: 29.82 inHg , 1009.8 hPa
Clouds: Partly cloudy
Visibility: 10 miles , 16 km
Cloud details: Partly cloudy 5500 ft
Partly cloudy 25000 ft
2020/07/14 01:51 KPVD 140151Z 27003KT 10SM SCT055 SCT250 25/18 A2982 RMK AO2 SLP096 T02500183
 
KSFZ - Pawtucket, Rhode Island, USA
Distance from station: W 30mi, 48km
Updated: Mon, 13-Jul-2020 9:56pm EDT
Few Clouds
Few Clouds
 Wind from calm
Wind: Calm
Temperature: 68°F , 20°C
Dew Point: 66°F , 19°C
Humidity: 94%
Barometer: 29.83 inHg , 1010.2 hPa
Clouds: Few Clouds
Visibility: 10 miles , 16 km
Cloud details: Few Clouds 7500 ft
2020/07/14 01:56 KSFZ 140156Z AUTO 00000KT 10SM FEW075 20/19 A2983 RMK AO2 SLP046 T02000189
KUUU - Newport, Rhode Island, USA
Distance from station: SW 31mi, 50km
Updated: Mon, 13-Jul-2020 9:53pm EDT
Clear
Clear
 Wind from S
Wind: S 5 mph , 7 km/h
Temperature: 72°F , 22°C
Dew Point: 68°F , 20°C
Humidity: 88%
Barometer: 29.82 inHg , 1009.8 hPa
Clouds: Clear
Visibility: 9 miles , 14 km
2020/07/14 01:53 KUUU 140153Z AUTO 19004KT 9SM CLR 22/20 A2982 RMK AO2 SLP094 T02220200
 
KOQU - N. Kingston/Quon, Rhode Island, USA
Distance from station: SW 32mi, 52km
Updated: Sun, 12-Jul-2020 5:50pm EDT
NOT Current
Partly cloudy
Partly cloudy
 Wind from WSW
Wind: WSW 14 mph , 22 km/h
Temperature: 86°F , 30°C
Heat Index: 88°F , 31°C
Dew Point: 66°F , 19°C
Humidity: 52%
Barometer: 29.67 inHg , 1004.7 hPa
Clouds: Partly cloudy
Visibility: 10 miles , 16 km
Cloud details: Few Clouds 4000 ft
Partly cloudy 15000 ft
2020/07/12 21:50 KOQU 122150Z 24012KT 10SM FEW040 SCT150 30/19 A2967 RMK LAST
KBOS - Boston, Massachusetts, USA
Distance from station: N 33mi, 54km
Updated: Mon, 13-Jul-2020 9:54pm EDT
Partly cloudy
Partly cloudy
 Wind from W
Wind: W 5 mph , 7 km/h
Temperature: 73°F , 23°C
Dew Point: 66°F , 19°C
Humidity: 78%
Barometer: 29.82 inHg , 1009.8 hPa
Clouds: Partly cloudy
Visibility: 10 miles , 16 km
Cloud details: Few Clouds 2500 ft
Few Clouds 5500 ft
Partly cloudy 25000 ft
2020/07/14 01:54 KBOS 140154Z 26004KT 10SM FEW025 FEW055 SCT250 23/19 A2982 RMK AO2 SLP096 T02280189
 
KHYA - Hyannis, Massachusetts, USA
Distance from station: ESE 37mi, 59km
Updated: Mon, 13-Jul-2020 9:56pm EDT
Clear
Clear
 Wind from SW
Wind: SW 5 mph , 7 km/h
Temperature: 75°F , 24°C
Dew Point: 72°F , 22°C
Humidity: 89%
Barometer: 29.80 inHg , 1009.1 hPa
Clouds: Clear
Visibility: 10 miles , 16 km
2020/07/14 01:56 KHYA 140156Z 22004KT 10SM CLR 24/22 A2980 RMK AO2 SLP093 T02390217
KMVY - Marthas Vineyard, Massachusetts, USA
Distance from station: SSE 37mi, 60km
Updated: Mon, 13-Jul-2020 9:53pm EDT
Mist, Partly cloudy
Mist, Partly cloudy
 Wind from SW
Wind: SW 7 mph , 11 km/h
Temperature: 70°F , 21°C
Dew Point: 70°F , 21°C
Humidity: 100%
Barometer: 29.82 inHg , 1009.8 hPa
Summary: Mist
Clouds: Partly cloudy
Visibility: 6 miles , 10 km
Cloud details: Partly cloudy 300 ft
2020/07/14 01:53 KMVY 140153Z 22006KT 6SM BR SCT003 21/21 A2982 RMK AO2 SLP098 T02110206
 
KPVC - Provincetown, Massachusetts, USA
Distance from station: ENE 38mi, 61km
Updated: Mon, 13-Jul-2020 9:56pm EDT
Clear
Clear
 Wind from SSW
Wind: SSW 8 mph , 13 km/h
Temperature: 70°F , 21°C
Dew Point: 70°F , 21°C
Humidity: 100%
Barometer: 29.81 inHg , 1009.5 hPa
Clouds: Clear
Visibility: 10 miles , 16 km
2020/07/14 01:56 KPVC 140156Z AUTO 21007KT 10SM CLR 21/21 A2981 RMK AO2 SLP094 T02110206 PNO $
KBED - Bedford, Massachusetts, USA
Distance from station: NNW 44mi, 72km
Updated: Mon, 13-Jul-2020 9:51pm EDT
Light rain, Overcast
Light rain, Overcast
 Wind from calm
Wind: Calm
Temperature: 72°F , 22°C
Dew Point: 66°F , 19°C
Humidity: 83%
Barometer: 29.80 inHg , 1009.1 hPa
Summary: Light rain
Clouds: Overcast
Visibility: 10 miles , 16 km
Cloud details: Few Clouds 6000 ft
Overcast 9000 ft
2020/07/14 01:51 KBED 140151Z 00000KT 10SM -RA FEW060 OVC090 22/19 A2980 RMK AO2 RAB17 TSE39 SLP102 CB DSNT SE P0002 T02170189
 
KBVY - Beverly, Massachusetts, USA
Distance from station: 0 48mi, 77km
Updated: Mon, 13-Jul-2020 9:53pm EDT
Few Clouds
Few Clouds
 Wind from SSE
Wind: SSE 5 mph , 7 km/h
Temperature: 70°F , 21°C
Dew Point: 66°F , 19°C
Humidity: 88%
Barometer: 29.81 inHg , 1009.5 hPa
Clouds: Few Clouds
Visibility: 10 miles , 16 km
Cloud details: Few Clouds 9000 ft
2020/07/14 01:53 KBVY 140153Z AUTO 15004KT 10SM FEW090 21/19 A2981 RMK AO2 SLP087 T02060189
KCQX - Chatham, Massachusetts, USA
Distance from station: ESE 49mi, 80km
Updated: Mon, 13-Jul-2020 10:02pm EDT
Few Clouds
Few Clouds
 Wind from SW
Wind: SW 7 mph , 11 km/h
Temperature: 72°F , 22°C
Dew Point: 70°F , 21°C
Humidity: 94%
Barometer: 29.82 inHg , 1009.8 hPa
Clouds: Few Clouds
Visibility: 10 miles , 16 km
Cloud details: Few Clouds 600 ft
2020/07/14 02:02 KCQX 140202Z AUTO 22006KT 10SM FEW006 22/21 A2982 RMK AO2 T02220206